createdAt,value
2022-12-26T00:00:19.158Z,5.60
2022-12-26T00:03:22.345Z,6.20
2022-12-26T00:06:28.525Z,5.97
2022-12-26T00:09:33.844Z,6.53
2022-12-26T00:12:38.895Z,6.80
2022-12-26T00:15:43.206Z,6.10
2022-12-26T00:18:47.575Z,6.68
2022-12-26T00:21:50.797Z,7.07
2022-12-26T00:24:54.003Z,6.30
2022-12-26T00:27:58.531Z,6.47
2022-12-26T00:31:05.846Z,6.72
2022-12-26T00:34:08.919Z,6.88
2022-12-26T00:37:11.972Z,6.18
2022-12-26T00:40:15.369Z,6.22
2022-12-26T00:43:19.928Z,6.28
2022-12-26T00:46:23.222Z,6.93
2022-12-26T00:49:26.443Z,7.10
2022-12-26T00:52:29.464Z,6.88
2022-12-26T00:55:32.772Z,7.43
2022-12-26T00:58:40.462Z,7.97
2022-12-26T01:01:43.652Z,7.13
2022-12-26T01:04:46.811Z,7.00
2022-12-26T01:08:20.348Z,7.15
2022-12-26T01:11:16.071Z,7.38
2022-12-26T01:14:20.364Z,7.03
2022-12-26T01:17:23.662Z,7.10
2022-12-26T01:20:26.806Z,6.83
2022-12-26T01:23:29.875Z,6.40
2022-12-26T01:26:33.126Z,6.82
2022-12-26T01:29:37.435Z,6.67
2022-12-26T01:32:40.399Z,6.35
2022-12-26T01:35:53.972Z,6.82
2022-12-26T01:38:57.169Z,7.20
2022-12-26T01:42:00.340Z,6.70
2022-12-26T01:45:18.696Z,7.43
2022-12-26T01:48:33.443Z,7.35
2022-12-26T01:51:41.651Z,7.68
2022-12-26T01:54:49.453Z,7.07
2022-12-26T01:57:57.684Z,7.22
2022-12-26T02:01:06.135Z,7.65
2022-12-26T02:04:44.911Z,7.93
2022-12-26T02:07:48.512Z,7.47
2022-12-26T02:10:58.169Z,7.60
2022-12-26T02:14:03.247Z,6.93
2022-12-26T02:17:08.595Z,7.80
2022-12-26T02:20:20.764Z,6.75
2022-12-26T02:24:13.969Z,7.97
2022-12-26T02:27:40.293Z,8.27
2022-12-26T02:30:51.762Z,8.05
2022-12-26T02:34:06.294Z,8.90
2022-12-26T02:37:28.945Z,7.78
2022-12-26T02:40:50.637Z,8.00
2022-12-26T02:44:27.587Z,6.85
2022-12-26T02:47:42.587Z,8.25
2022-12-26T02:51:22.075Z,7.47
2022-12-26T02:54:49.768Z,7.90
2022-12-26T02:58:21.238Z,7.57
2022-12-26T03:01:50.069Z,8.43
2022-12-26T03:05:15.311Z,7.65
2022-12-26T03:08:45.540Z,6.75
2022-12-26T03:12:10.929Z,8.80
2022-12-26T03:15:18.462Z,8.18
2022-12-26T03:18:56.808Z,7.90
2022-12-26T03:21:49.509Z,7.15
2022-12-26T03:25:09.128Z,6.97
2022-12-26T03:28:13.903Z,7.18
2022-12-26T03:31:17.210Z,7.13
2022-12-26T03:34:20.588Z,7.15
2022-12-26T03:37:50.222Z,7.43
2022-12-26T03:41:20.256Z,7.97
2022-12-26T03:44:53.967Z,7.20
2022-12-26T03:48:23.885Z,8.25
2022-12-26T03:51:52.124Z,7.75
2022-12-26T03:55:30.320Z,7.38
2022-12-26T03:58:57.969Z,7.10
2022-12-26T04:02:39.790Z,6.68
2022-12-26T04:06:05.858Z,7.70
2022-12-26T04:09:34.888Z,7.20
2022-12-26T04:13:00.295Z,7.05
2022-12-26T04:16:31.503Z,7.13
2022-12-26T04:20:03.188Z,7.70
2022-12-26T04:23:30.231Z,7.28
2022-12-26T04:26:59.276Z,7.47
2022-12-26T04:30:21.296Z,8.48
2022-12-26T04:33:48.082Z,8.48
2022-12-26T04:37:16.289Z,8.02
2022-12-26T04:40:45.243Z,7.57
2022-12-26T04:44:10.392Z,9.38
2022-12-26T04:47:14.938Z,9.35
2022-12-26T04:50:17.132Z,8.82
2022-12-26T04:53:24.960Z,8.50
2022-12-26T04:56:28.042Z,8.60
2022-12-26T04:59:31.180Z,9.30
2022-12-26T05:02:53.145Z,8.95
2022-12-26T05:06:13.858Z,8.65
2022-12-26T05:09:36.794Z,9.38
2022-12-26T05:12:39.809Z,8.48
2022-12-26T05:15:56.826Z,8.90
2022-12-26T05:19:18.940Z,8.07
2022-12-26T05:22:40.176Z,8.45
2022-12-26T05:26:03.651Z,8.00
2022-12-26T05:29:06.749Z,8.65
2022-12-26T05:32:09.847Z,9.40
2022-12-26T05:35:13.479Z,8.63
2022-12-26T05:38:16.545Z,8.07
2022-12-26T05:41:19.927Z,8.98
2022-12-26T05:44:23.003Z,9.70
2022-12-26T05:47:26.015Z,8.82
2022-12-26T05:50:30.915Z,8.18
2022-12-26T05:53:34.727Z,8.60
2022-12-26T05:56:37.845Z,8.15
2022-12-26T05:59:40.938Z,7.70
2022-12-26T06:02:44.195Z,9.10
2022-12-26T06:05:49.064Z,7.70
2022-12-26T06:08:54.827Z,7.13
2022-12-26T06:11:57.900Z,7.25
2022-12-26T06:15:00.949Z,7.30
2022-12-26T06:18:04.095Z,6.53
2022-12-26T06:21:11.977Z,7.33
2022-12-26T06:24:15.445Z,6.72
2022-12-26T06:27:18.532Z,6.28
2022-12-26T06:30:21.542Z,6.68
2022-12-26T06:33:25.117Z,7.47
2022-12-26T06:36:30.787Z,7.70
2022-12-26T06:39:34.006Z,6.40
2022-12-26T06:42:37.235Z,6.47
2022-12-26T06:45:40.244Z,6.70
2022-12-26T06:48:43.558Z,6.22
2022-12-26T06:51:47.937Z,7.33
2022-12-26T06:54:51.025Z,7.15
2022-12-26T06:57:54.308Z,6.72
2022-12-26T07:00:57.395Z,6.80
2022-12-26T07:04:01.621Z,6.80
2022-12-26T07:10:10.268Z,7.15
2022-12-26T07:13:13.309Z,8.50
2022-12-26T07:16:16.517Z,8.80
2022-12-26T07:19:19.746Z,9.37
2022-12-26T07:22:24.298Z,10.00
2022-12-26T07:25:27.303Z,9.25
2022-12-26T07:28:31.067Z,10.00
2022-12-26T07:31:34.158Z,10.02
2022-12-26T07:34:37.165Z,11.07
2022-12-26T07:37:41.589Z,10.95
2022-12-26T07:40:44.570Z,11.00
2022-12-26T07:43:47.575Z,11.98
2022-12-26T07:46:51.161Z,12.05
2022-12-26T07:49:54.249Z,11.10
2022-12-26T07:53:00.292Z,11.35
2022-12-26T07:56:03.783Z,10.18
2022-12-26T07:59:06.761Z,10.63
2022-12-26T08:02:11.931Z,11.73
2022-12-26T08:05:16.438Z,11.85
2022-12-26T08:08:21.017Z,12.57
2022-12-26T08:11:25.870Z,12.60
2022-12-26T08:14:28.872Z,10.23
2022-12-26T08:17:32.779Z,10.38
2022-12-26T08:20:35.842Z,11.70
2022-12-26T08:23:40.438Z,10.77
2022-12-26T08:26:43.452Z,9.52
2022-12-26T08:29:46.387Z,9.57
2022-12-26T08:32:49.553Z,10.60
2022-12-26T08:35:52.919Z,10.40
2022-12-26T08:38:58.551Z,10.13
2022-12-26T08:42:01.464Z,10.43
2022-12-26T08:45:04.828Z,10.43
2022-12-26T08:48:07.875Z,8.93
2022-12-26T08:51:15.444Z,8.27
2022-12-26T08:54:19.809Z,8.13
2022-12-26T08:57:22.881Z,7.57
2022-12-26T09:00:26.442Z,7.60
2022-12-26T09:03:29.553Z,8.55
2022-12-26T09:06:35.638Z,9.25
2022-12-26T09:09:40.129Z,9.38
2022-12-26T09:12:43.228Z,8.60
2022-12-26T09:15:46.251Z,8.85
2022-12-26T09:18:53.987Z,7.47
2022-12-26T09:22:11.536Z,7.97
2022-12-26T09:25:15.990Z,9.52
2022-12-26T09:28:20.987Z,8.15
2022-12-26T09:31:27.465Z,7.60
2022-12-26T09:34:30.795Z,6.97
2022-12-26T09:37:34.369Z,7.07
2022-12-26T09:40:55.614Z,6.95
2022-12-26T09:44:10.012Z,7.25
2022-12-26T09:47:32.853Z,6.93
2022-12-26T09:50:43.608Z,6.57
2022-12-26T09:53:48.600Z,6.68
2022-12-26T09:57:02.622Z,6.28
2022-12-26T10:00:17.420Z,6.35
2022-12-26T10:03:21.167Z,5.63
2022-12-26T10:06:26.956Z,5.72
2022-12-26T10:09:57.388Z,5.93
2022-12-26T10:13:12.356Z,6.30
2022-12-26T10:16:23.693Z,5.53
2022-12-26T10:19:57.421Z,5.43
2022-12-26T10:23:43.582Z,6.07
2022-12-26T10:26:58.096Z,5.80
2022-12-26T10:30:15.024Z,5.20
2022-12-26T10:33:30.416Z,5.45
2022-12-26T10:36:40.391Z,5.15
2022-12-26T10:39:49.765Z,5.35
2022-12-26T10:42:55.948Z,5.43
2022-12-26T10:46:50.217Z,5.50
2022-12-26T10:49:59.693Z,5.28
2022-12-26T10:53:07.937Z,5.35
2022-12-26T10:56:16.373Z,4.72
2022-12-26T10:59:29.776Z,5.15
2022-12-26T11:02:34.388Z,5.25
2022-12-26T11:06:07.051Z,5.25
2022-12-26T11:09:06.063Z,5.15
2022-12-26T11:12:21.825Z,5.15
2022-12-26T11:15:40.429Z,4.07
2022-12-26T11:18:52.341Z,4.20
2022-12-26T11:21:55.845Z,3.35
2022-12-26T11:25:23.101Z,3.38
2022-12-26T11:28:31.490Z,3.50
2022-12-26T11:31:35.499Z,3.60
2022-12-26T11:34:46.982Z,3.00
2022-12-26T11:37:56.181Z,2.90
2022-12-26T11:41:13.699Z,2.40
2022-12-26T11:44:28.912Z,2.20
2022-12-26T11:47:32.121Z,2.67
2022-12-26T11:50:47.431Z,3.60
2022-12-26T11:53:50.529Z,3.72
2022-12-26T11:57:16.074Z,4.15
2022-12-26T12:00:24.582Z,5.20
2022-12-26T12:03:35.508Z,5.72
2022-12-26T12:07:00.884Z,6.22
2022-12-26T12:10:29.306Z,5.55
2022-12-26T12:14:06.689Z,5.90
2022-12-26T12:17:23.058Z,6.38
2022-12-26T12:20:37.013Z,6.60
2022-12-26T12:24:05.285Z,6.85
2022-12-26T12:27:18.335Z,5.93
2022-12-26T12:30:25.359Z,6.80
2022-12-26T12:33:53.495Z,7.63
2022-12-26T12:37:17.606Z,7.45
2022-12-26T12:40:34.787Z,6.88
2022-12-26T12:43:51.685Z,7.78
2022-12-26T12:47:08.330Z,7.95
2022-12-26T12:50:24.703Z,7.35
2022-12-26T12:53:51.981Z,7.97
2022-12-26T12:57:08.447Z,8.20
2022-12-26T13:00:19.469Z,8.80
2022-12-26T13:03:34.222Z,8.80
2022-12-26T13:06:44.524Z,9.38
2022-12-26T13:09:52.976Z,9.07
2022-12-26T13:13:00.164Z,9.30
2022-12-26T13:16:11.409Z,9.30
2022-12-26T13:19:21.414Z,9.45
2022-12-26T13:22:28.682Z,8.45
2022-12-26T13:25:38.974Z,8.88
2022-12-26T13:28:55.569Z,8.23
2022-12-26T13:32:00.278Z,8.60
2022-12-26T13:35:04.327Z,8.52
2022-12-26T13:38:07.537Z,8.63
2022-12-26T13:41:36.615Z,7.50
2022-12-26T13:44:41.663Z,8.55
2022-12-26T13:47:44.799Z,9.20
2022-12-26T13:50:55.795Z,8.82
2022-12-26T13:54:09.816Z,8.02
2022-12-26T13:57:40.080Z,10.23
2022-12-26T14:00:49.091Z,8.43
2022-12-26T14:04:30.957Z,8.10
2022-12-26T14:07:43.755Z,7.85
2022-12-26T14:10:59.524Z,8.40
2022-12-26T14:14:18.450Z,9.57
2022-12-26T14:17:38.419Z,8.90
2022-12-26T14:20:50.187Z,8.65
2022-12-26T14:24:04.316Z,8.50
2022-12-26T14:27:30.194Z,8.00
2022-12-26T14:30:53.622Z,8.25
2022-12-26T14:34:14.851Z,8.82
2022-12-26T14:37:29.316Z,8.20
2022-12-26T14:43:39.013Z,7.30
2022-12-26T14:50:44.001Z,6.70
2022-12-26T14:54:34.341Z,6.43
2022-12-26T14:57:47.624Z,6.63
2022-12-26T15:00:51.590Z,7.20
2022-12-26T15:04:03.171Z,7.40
2022-12-26T15:08:19.311Z,7.75
2022-12-26T15:15:32.900Z,6.88
2022-12-26T15:19:19.207Z,6.25
2022-12-26T15:23:17.018Z,7.03
2022-12-26T15:27:08.633Z,6.30
2022-12-26T15:30:21.547Z,5.90
2022-12-26T15:33:32.779Z,5.88
2022-12-26T15:36:49.831Z,6.53
2022-12-26T15:40:08.116Z,6.05
2022-12-26T15:43:50.275Z,6.45
2022-12-26T15:47:15.598Z,5.78
2022-12-26T15:50:29.785Z,5.03
2022-12-26T15:53:52.314Z,5.32
2022-12-26T15:57:16.041Z,5.10
2022-12-26T16:00:24.804Z,4.07
2022-12-26T16:03:38.390Z,3.50
2022-12-26T16:07:07.898Z,3.40
2022-12-26T16:10:32.881Z,2.42
2022-12-26T16:13:36.504Z,2.72
2022-12-26T16:16:41.347Z,2.13
2022-12-26T16:19:47.440Z,2.15
2022-12-26T16:22:49.723Z,1.65
2022-12-26T16:25:56.994Z,1.30
2022-12-26T16:29:02.102Z,1.52
2022-12-26T16:32:08.712Z,0.80
2022-12-26T16:35:21.673Z,0.77
2022-12-26T16:38:31.390Z,1.15
2022-12-26T16:41:39.023Z,0.60
2022-12-26T16:44:44.490Z,0.50
2022-12-26T16:47:49.760Z,0.50
2022-12-26T16:50:55.711Z,0.38
2022-12-26T16:54:17.772Z,0.30
2022-12-26T16:57:22.454Z,0.50
2022-12-26T17:00:26.564Z,0.43
2022-12-26T17:06:51.052Z,0.60
2022-12-26T17:09:59.220Z,0.50
2022-12-26T17:13:07.654Z,0.40
2022-12-26T17:16:11.318Z,0.55
2022-12-26T17:19:21.819Z,0.40
2022-12-26T17:22:31.672Z,0.73
2022-12-26T17:25:34.762Z,0.77
2022-12-26T17:28:38.817Z,0.73
2022-12-26T17:31:45.281Z,0.85
2022-12-26T17:34:50.120Z,1.25
2022-12-26T17:37:58.778Z,1.00
2022-12-26T17:41:06.867Z,0.98
2022-12-26T17:44:36.382Z,1.23
2022-12-26T17:47:39.660Z,1.00
2022-12-26T17:50:47.607Z,1.43
2022-12-26T17:53:52.752Z,1.15
2022-12-26T17:56:55.986Z,1.48
2022-12-26T17:59:59.641Z,1.70
2022-12-26T18:03:02.937Z,1.80
2022-12-26T18:06:07.731Z,1.30
2022-12-26T18:09:27.220Z,1.55
2022-12-26T18:12:30.369Z,1.77
2022-12-26T18:15:33.905Z,1.83
2022-12-26T18:18:40.701Z,1.40
2022-12-26T18:21:45.633Z,1.73
2022-12-26T18:24:48.673Z,1.77
2022-12-26T18:27:53.481Z,2.10
2022-12-26T18:30:58.149Z,2.35
2022-12-26T18:34:01.126Z,1.63
2022-12-26T18:37:05.584Z,2.13
2022-12-26T18:40:30.617Z,1.95
2022-12-26T18:43:33.846Z,3.00
2022-12-26T18:46:37.082Z,2.73
2022-12-26T18:49:40.683Z,2.93
2022-12-26T18:52:48.693Z,2.25
2022-12-26T18:55:56.496Z,1.83
2022-12-26T18:58:59.514Z,2.43
2022-12-26T19:02:03.167Z,2.38
2022-12-26T19:05:07.157Z,2.47
2022-12-26T19:08:12.923Z,2.10
2022-12-26T19:11:16.451Z,2.38
2022-12-26T19:14:22.860Z,2.80
2022-12-26T19:17:25.837Z,2.45
2022-12-26T19:20:29.419Z,1.80
2022-12-26T19:23:33.837Z,2.40
2022-12-26T19:26:36.920Z,2.40
2022-12-26T19:29:40.039Z,2.60
2022-12-26T19:32:44.121Z,2.10
2022-12-26T19:38:54.032Z,1.98
2022-12-26T19:41:57.160Z,2.17
2022-12-26T19:45:00.572Z,3.10
2022-12-26T19:48:04.435Z,1.88
2022-12-26T19:51:11.150Z,2.22
2022-12-26T19:54:15.683Z,2.42
2022-12-26T19:57:19.114Z,2.30
2022-12-26T20:00:22.867Z,2.50
2022-12-26T20:03:25.957Z,2.30
2022-12-26T20:06:31.620Z,1.83
2022-12-26T20:09:37.325Z,2.33
2022-12-26T20:12:40.532Z,2.17
2022-12-26T20:15:43.510Z,1.97
2022-12-26T20:18:47.463Z,2.72
2022-12-26T20:21:51.626Z,2.25
2022-12-26T20:27:58.956Z,2.50
2022-12-26T20:31:09.100Z,2.17
2022-12-26T20:34:16.176Z,2.10
2022-12-26T20:37:19.196Z,2.63
2022-12-26T20:40:25.463Z,2.10
2022-12-26T20:46:51.655Z,1.98
2022-12-26T20:49:54.835Z,1.98
2022-12-26T20:52:58.533Z,1.75
2022-12-26T20:56:04.103Z,2.13
2022-12-26T20:59:08.145Z,2.35
2022-12-26T21:02:12.956Z,2.60
2022-12-26T21:05:16.715Z,2.90
2022-12-26T21:08:20.315Z,2.13
2022-12-26T21:11:27.807Z,2.42
2022-12-26T21:14:31.237Z,2.35
2022-12-26T21:17:34.434Z,2.42
2022-12-26T21:20:38.756Z,2.60
2022-12-26T21:23:42.745Z,2.75
2022-12-26T21:26:50.212Z,3.05
2022-12-26T21:29:53.584Z,2.35
2022-12-26T21:32:57.555Z,2.47
2022-12-26T21:36:01.085Z,2.70
2022-12-26T21:39:09.780Z,2.80
2022-12-26T21:42:14.847Z,1.75
2022-12-26T21:45:19.361Z,2.40
2022-12-26T21:48:23.808Z,2.72
2022-12-26T21:51:29.299Z,2.58
2022-12-26T21:54:50.008Z,2.80
2022-12-26T21:57:56.284Z,2.60
2022-12-26T22:00:59.676Z,2.53
2022-12-26T22:04:20.191Z,2.30
2022-12-26T22:07:23.408Z,2.90
2022-12-26T22:10:49.380Z,2.63
2022-12-26T22:13:53.873Z,2.50
2022-12-26T22:16:59.330Z,2.88
2022-12-26T22:20:02.372Z,2.63
2022-12-26T22:23:05.838Z,2.83
2022-12-26T22:26:11.740Z,2.70
2022-12-26T22:29:17.201Z,3.22
2022-12-26T22:32:20.290Z,3.63
2022-12-26T22:35:23.363Z,3.05
2022-12-26T22:38:27.927Z,2.47
2022-12-26T22:41:31.086Z,2.78
2022-12-26T22:44:35.593Z,3.17
2022-12-26T22:47:38.707Z,2.83
2022-12-26T22:50:44.408Z,2.90
2022-12-26T22:53:48.135Z,2.40
2022-12-26T22:56:51.132Z,2.70
2022-12-26T23:00:11.605Z,3.00
2022-12-26T23:03:15.642Z,2.78
2022-12-26T23:06:25.055Z,2.65
2022-12-26T23:09:28.711Z,2.58
2022-12-26T23:12:44.570Z,5.00
2022-12-26T23:16:00.272Z,3.30
2022-12-26T23:19:34.980Z,3.67
2022-12-26T23:22:38.870Z,3.08
2022-12-26T23:25:41.960Z,3.30
2022-12-26T23:29:02.627Z,3.08
2022-12-26T23:32:08.736Z,3.28
2022-12-26T23:35:13.649Z,3.17
2022-12-26T23:38:16.713Z,3.08
2022-12-26T23:41:19.705Z,2.85
2022-12-26T23:44:23.033Z,2.72
2022-12-26T23:47:27.734Z,2.43
2022-12-26T23:50:30.817Z,2.17
2022-12-26T23:53:34.103Z,2.43
2022-12-26T23:56:38.135Z,2.30
